createdAt,value
2023-04-14T00:01:26.476Z,99.90
2023-04-14T00:03:53.477Z,99.90
2023-04-14T00:06:20.420Z,99.90
2023-04-14T00:08:47.273Z,99.90
2023-04-14T00:11:15.526Z,99.90
2023-04-14T00:13:42.393Z,99.90
2023-04-14T00:16:09.692Z,99.90
2023-04-14T00:18:36.514Z,99.90
2023-04-14T00:21:03.554Z,99.90
2023-04-14T00:23:30.375Z,99.90
2023-04-14T00:25:57.259Z,99.90
2023-04-14T00:28:25.471Z,99.90
2023-04-14T00:30:52.308Z,99.90
2023-04-14T00:33:19.180Z,99.90
2023-04-14T00:35:46.043Z,99.90
2023-04-14T00:38:12.964Z,99.90
2023-04-14T00:40:39.779Z,99.90
2023-04-14T00:43:06.576Z,99.90
2023-04-14T00:45:41.471Z,99.90
2023-04-14T00:48:08.598Z,99.90
2023-04-14T00:50:35.619Z,99.90
2023-04-14T00:53:02.672Z,99.90
2023-04-14T00:55:29.829Z,99.90
2023-04-14T00:57:57.082Z,99.90
2023-04-14T01:00:24.089Z,99.90
2023-04-14T01:02:53.292Z,99.90
2023-04-14T01:05:20.301Z,99.90
2023-04-14T01:07:48.337Z,99.90
2023-04-14T01:10:16.103Z,99.90
2023-04-14T01:13:08.377Z,99.90
2023-04-14T01:15:41.247Z,99.90
2023-04-14T01:18:15.812Z,99.90
2023-04-14T01:20:45.044Z,99.90
2023-04-14T01:23:20.369Z,99.90
2023-04-14T01:26:17.991Z,99.90
2023-04-14T01:29:20.058Z,99.90
2023-04-14T01:31:53.646Z,99.90
2023-04-14T01:34:25.112Z,99.90
2023-04-14T01:36:56.933Z,99.90
2023-04-14T01:39:27.388Z,99.90
2023-04-14T01:41:57.524Z,99.90
2023-04-14T01:44:26.687Z,99.90
2023-04-14T01:47:00.248Z,99.90
2023-04-14T01:49:29.963Z,99.90
2023-04-14T01:51:56.852Z,99.90
2023-04-14T01:54:24.700Z,99.90
2023-04-14T01:56:53.408Z,99.90
2023-04-14T01:59:21.308Z,99.90
2023-04-14T02:01:50.359Z,99.90
2023-04-14T02:04:21.833Z,99.90
2023-04-14T02:06:51.203Z,99.90
2023-04-14T02:09:20.108Z,99.90
2023-04-14T02:11:48.798Z,99.90
2023-04-14T02:14:16.981Z,99.90
2023-04-14T02:16:45.582Z,99.90
2023-04-14T02:19:13.270Z,99.90
2023-04-14T02:21:42.402Z,99.90
2023-04-14T02:24:09.440Z,99.90
2023-04-14T02:26:40.244Z,99.90
2023-04-14T02:29:11.796Z,99.90
2023-04-14T02:31:43.010Z,99.90
2023-04-14T02:34:12.878Z,99.90
2023-04-14T02:36:43.684Z,99.90
2023-04-14T02:39:14.834Z,99.90
2023-04-14T02:41:44.423Z,99.90
2023-04-14T02:44:16.061Z,99.90
2023-04-14T02:46:51.059Z,99.90
2023-04-14T02:49:19.710Z,99.90
2023-04-14T02:51:48.920Z,99.90
2023-04-14T02:54:18.029Z,99.90
2023-04-14T02:56:45.076Z,99.90
2023-04-14T02:59:12.567Z,99.90
2023-04-14T03:01:40.688Z,99.90
2023-04-14T03:04:07.784Z,99.90
2023-04-14T03:06:38.353Z,99.90
2023-04-14T03:09:07.188Z,99.90
2023-04-14T03:11:36.753Z,99.90
2023-04-14T03:14:03.876Z,99.90
2023-04-14T03:16:31.961Z,99.90
2023-04-14T03:19:01.795Z,99.90
2023-04-14T03:21:30.161Z,99.90
2023-04-14T03:23:58.641Z,99.90
2023-04-14T03:26:29.570Z,99.90
2023-04-14T03:28:59.062Z,99.90
2023-04-14T03:31:31.697Z,99.90
2023-04-14T03:34:02.821Z,99.90
2023-04-14T03:36:30.948Z,99.90
2023-04-14T03:38:59.331Z,99.90
2023-04-14T03:41:29.468Z,99.90
2023-04-14T03:43:57.433Z,99.90
2023-04-14T03:46:24.466Z,99.90
2023-04-14T03:48:52.508Z,99.90
2023-04-14T03:51:22.427Z,99.90
2023-04-14T03:53:50.234Z,99.90
2023-04-14T03:56:18.700Z,99.90
2023-04-14T03:58:47.487Z,99.90
2023-04-14T04:01:15.081Z,99.90
2023-04-14T04:03:43.809Z,99.90
2023-04-14T04:06:11.196Z,99.90
2023-04-14T04:08:40.385Z,99.90
2023-04-14T04:11:08.341Z,99.90
2023-04-14T04:13:36.580Z,99.90
2023-04-14T04:16:06.818Z,99.90
2023-04-14T04:18:36.951Z,99.90
2023-04-14T04:21:04.405Z,99.90
2023-04-14T04:23:33.115Z,99.90
2023-04-14T04:26:00.440Z,99.90
2023-04-14T04:28:27.684Z,99.90
2023-04-14T04:30:56.269Z,99.90
2023-04-14T04:33:25.894Z,99.90
2023-04-14T04:35:53.704Z,99.90
2023-04-14T04:38:20.522Z,99.90
2023-04-14T04:40:47.387Z,99.90
2023-04-14T04:43:14.200Z,99.90
2023-04-14T04:45:49.785Z,99.90
2023-04-14T04:48:16.797Z,99.90
2023-04-14T04:50:44.969Z,99.90
2023-04-14T04:53:12.181Z,99.90
2023-04-14T04:55:40.772Z,99.90
2023-04-14T04:58:07.580Z,99.90
2023-04-14T05:00:34.614Z,99.90
2023-04-14T05:03:01.466Z,99.90
2023-04-14T05:05:28.360Z,99.90
2023-04-14T05:07:56.610Z,99.90
2023-04-14T05:10:23.412Z,99.90
2023-04-14T05:12:50.281Z,99.90
2023-04-14T05:15:17.405Z,99.90
2023-04-14T05:17:44.232Z,99.90
2023-04-14T05:20:12.245Z,99.90
2023-04-14T05:22:39.028Z,99.90
2023-04-14T05:25:08.122Z,99.90
2023-04-14T05:27:34.908Z,99.90
2023-04-14T05:30:01.837Z,99.90
2023-04-14T05:32:29.278Z,99.90
2023-04-14T05:34:56.228Z,99.90
2023-04-14T05:37:23.168Z,99.90
2023-04-14T05:39:50.392Z,99.90
2023-04-14T05:42:18.509Z,99.90
2023-04-14T05:44:45.629Z,99.90
2023-04-14T05:47:12.411Z,99.90
2023-04-14T05:49:39.277Z,99.90
2023-04-14T05:52:06.110Z,99.90
2023-04-14T05:54:32.982Z,99.90
2023-04-14T05:56:59.839Z,99.90
2023-04-14T05:59:28.071Z,99.90
2023-04-14T06:01:55.048Z,99.90
2023-04-14T06:04:22.075Z,99.90
2023-04-14T06:06:49.062Z,99.90
2023-04-14T06:09:15.880Z,99.90
2023-04-14T06:11:42.759Z,99.90
2023-04-14T06:14:09.548Z,99.90
2023-04-14T06:16:37.938Z,99.90
2023-04-14T06:19:04.942Z,99.90
2023-04-14T06:21:31.755Z,99.90
2023-04-14T06:23:59.752Z,99.90
2023-04-14T06:26:26.642Z,99.90
2023-04-14T06:28:53.480Z,99.90
2023-04-14T06:31:20.363Z,99.90
2023-04-14T06:33:48.569Z,99.90
2023-04-14T06:36:15.448Z,99.90
2023-04-14T06:38:42.284Z,99.90
2023-04-14T06:41:09.122Z,99.90
2023-04-14T06:43:35.890Z,99.90
2023-04-14T06:46:02.802Z,99.90
2023-04-14T06:48:29.703Z,99.90
2023-04-14T06:50:57.816Z,99.90
2023-04-14T06:53:24.601Z,99.90
2023-04-14T06:55:51.732Z,99.90
2023-04-14T06:58:18.739Z,99.90
2023-04-14T07:00:45.605Z,99.90
2023-04-14T07:03:12.380Z,99.90
2023-04-14T07:05:39.273Z,99.90
2023-04-14T07:08:07.379Z,99.90
2023-04-14T07:10:34.170Z,99.90
2023-04-14T07:13:00.938Z,99.90
2023-04-14T07:15:27.762Z,99.90
2023-04-14T07:17:54.593Z,99.90
2023-04-14T07:20:21.540Z,99.90
2023-04-14T07:22:48.392Z,99.90
2023-04-14T07:25:16.831Z,99.90
2023-04-14T07:27:49.890Z,99.90
2023-04-14T07:30:27.018Z,99.90
2023-04-14T07:32:53.966Z,99.90
2023-04-14T07:35:20.748Z,99.90
2023-04-14T07:37:47.568Z,99.90
2023-04-14T07:40:15.710Z,99.90
2023-04-14T07:42:42.511Z,99.90
2023-04-14T07:45:10.712Z,99.90
2023-04-14T07:47:37.746Z,99.90
2023-04-14T07:50:05.361Z,99.90
2023-04-14T07:52:32.167Z,99.90
2023-04-14T07:54:58.969Z,99.90
2023-04-14T07:57:27.174Z,99.90
2023-04-14T07:59:53.967Z,99.90
2023-04-14T08:02:20.986Z,99.90
2023-04-14T08:04:47.872Z,99.90
2023-04-14T08:07:14.611Z,99.90
2023-04-14T08:09:41.407Z,99.90
2023-04-14T08:12:08.156Z,99.90
2023-04-14T08:14:36.265Z,99.90
2023-04-14T08:17:03.043Z,99.90
2023-04-14T08:19:29.937Z,99.90
2023-04-14T08:21:56.776Z,99.90
2023-04-14T08:24:23.626Z,99.90
2023-04-14T08:26:50.416Z,99.90
2023-04-14T08:29:17.309Z,99.90
2023-04-14T08:31:45.447Z,99.90
2023-04-14T08:34:12.262Z,99.90
2023-04-14T08:36:42.371Z,99.90
2023-04-14T08:39:09.220Z,99.90
2023-04-14T08:41:39.246Z,99.90
2023-04-14T08:44:06.128Z,99.90
2023-04-14T08:46:33.707Z,99.90
2023-04-14T08:49:04.788Z,99.90
2023-04-14T08:51:34.657Z,99.90
2023-04-14T08:54:04.714Z,99.90
2023-04-14T08:56:36.406Z,99.90
2023-04-14T08:59:03.642Z,99.90
2023-04-14T09:01:32.077Z,99.90
2023-04-14T09:04:01.032Z,99.90
2023-04-14T09:06:29.860Z,99.90
2023-04-14T09:08:57.415Z,99.90
2023-04-14T09:11:24.562Z,99.90
2023-04-14T09:13:53.322Z,99.90
2023-04-14T09:16:20.253Z,99.90
2023-04-14T09:18:47.604Z,99.90
2023-04-14T09:21:51.061Z,99.90
2023-04-14T09:24:06.790Z,99.90
2023-04-14T09:26:33.779Z,99.90
2023-04-14T09:29:00.758Z,99.90
2023-04-14T09:31:27.938Z,99.90
2023-04-14T09:33:54.755Z,99.90
2023-04-14T09:36:23.132Z,99.90
2023-04-14T09:38:51.063Z,99.90
2023-04-14T09:41:20.380Z,99.90
2023-04-14T09:43:47.229Z,99.90
2023-04-14T09:46:14.399Z,99.90
2023-04-14T09:48:54.786Z,99.90
2023-04-14T09:51:22.805Z,99.90
2023-04-14T09:53:52.426Z,99.90
2023-04-14T09:56:21.080Z,99.90
2023-04-14T09:58:48.961Z,99.90
2023-04-14T10:01:17.604Z,99.90
2023-04-14T10:03:45.824Z,99.90
2023-04-14T10:06:17.385Z,99.90
2023-04-14T10:08:46.393Z,99.90
2023-04-14T10:11:18.284Z,99.90
2023-04-14T10:13:47.719Z,99.90
2023-04-14T10:16:14.863Z,99.90
2023-04-14T10:18:42.225Z,99.90
2023-04-14T10:21:09.924Z,99.90
2023-04-14T10:23:37.574Z,99.90
2023-04-14T10:26:05.933Z,99.90
2023-04-14T10:28:34.448Z,99.90
2023-04-14T10:31:05.183Z,99.90
2023-04-14T10:33:32.166Z,99.90
2023-04-14T10:36:00.388Z,99.90
2023-04-14T10:38:40.854Z,99.90
2023-04-14T10:41:07.881Z,99.90
2023-04-14T10:43:35.277Z,99.90
2023-04-14T10:46:04.332Z,99.90
2023-04-14T10:48:34.502Z,99.90
2023-04-14T10:51:03.048Z,99.90
2023-04-14T10:53:38.236Z,99.90
2023-04-14T10:56:05.885Z,99.90
2023-04-14T10:58:34.922Z,99.90
2023-04-14T11:01:21.389Z,99.90
2023-04-14T11:03:48.456Z,99.00
2023-04-14T11:06:52.334Z,98.50
2023-04-14T11:09:26.677Z,99.70
2023-04-14T11:11:55.738Z,99.90
2023-04-14T11:14:27.037Z,99.90
2023-04-14T11:17:03.659Z,99.70
2023-04-14T11:19:32.664Z,98.40
2023-04-14T11:21:59.487Z,97.10
2023-04-14T11:24:26.789Z,96.10
2023-04-14T11:26:54.047Z,94.90
2023-04-14T11:29:20.979Z,94.50
2023-04-14T11:31:58.391Z,94.20
2023-04-14T11:34:26.938Z,93.40
2023-04-14T11:36:54.427Z,92.80
2023-04-14T11:39:21.351Z,93.20
2023-04-14T11:41:48.585Z,93.00
2023-04-14T11:44:18.713Z,93.70
2023-04-14T11:46:45.761Z,93.90
2023-04-14T11:49:12.644Z,95.10
2023-04-14T11:51:41.997Z,93.30
2023-04-14T11:54:11.291Z,91.80
2023-04-14T11:56:38.322Z,91.40
2023-04-14T11:59:06.363Z,90.50
2023-04-14T12:01:33.481Z,90.00
2023-04-14T12:04:00.522Z,89.40
2023-04-14T12:06:28.083Z,88.50
2023-04-14T12:08:56.390Z,85.20
2023-04-14T12:11:23.219Z,86.30
2023-04-14T12:13:50.366Z,88.10
2023-04-14T12:16:17.969Z,89.00
2023-04-14T12:18:45.001Z,88.30
2023-04-14T12:21:17.394Z,89.60
2023-04-14T12:23:46.217Z,90.30
2023-04-14T12:26:14.528Z,89.70
2023-04-14T12:28:41.598Z,89.80
2023-04-14T12:31:09.346Z,90.10
2023-04-14T12:33:36.282Z,91.20
2023-04-14T12:36:04.383Z,93.50
2023-04-14T12:38:31.420Z,93.50
2023-04-14T12:40:58.293Z,93.10
2023-04-14T12:43:31.799Z,91.80
2023-04-14T12:45:59.342Z,90.90
2023-04-14T12:48:40.166Z,87.20
2023-04-14T12:51:07.902Z,85.00
2023-04-14T12:53:34.711Z,81.10
2023-04-14T12:56:06.142Z,76.60
2023-04-14T12:58:34.550Z,73.00
2023-04-14T13:01:01.407Z,71.30
2023-04-14T13:03:38.979Z,70.10
2023-04-14T13:06:06.135Z,69.70
2023-04-14T13:08:33.039Z,67.70
2023-04-14T13:11:00.111Z,65.90
2023-04-14T13:13:26.921Z,64.60
2023-04-14T13:16:14.688Z,64.30
2023-04-14T13:18:41.911Z,65.70
2023-04-14T13:21:09.102Z,71.90
2023-04-14T13:23:35.977Z,80.70
2023-04-14T13:26:02.895Z,90.10
2023-04-14T13:28:29.880Z,94.50
2023-04-14T13:30:58.113Z,98.60
2023-04-14T13:33:25.675Z,99.90
2023-04-14T13:35:53.105Z,99.90
2023-04-14T13:38:19.904Z,99.90
2023-04-14T13:40:48.226Z,99.90
2023-04-14T13:43:17.069Z,99.90
2023-04-14T13:45:44.153Z,99.90
2023-04-14T13:48:12.441Z,99.90
2023-04-14T13:50:39.372Z,99.90
2023-04-14T13:53:06.324Z,99.90
2023-04-14T13:55:33.889Z,99.90
2023-04-14T13:58:00.702Z,99.90
2023-04-14T14:00:27.548Z,99.90
2023-04-14T14:02:55.742Z,99.90
2023-04-14T14:05:24.219Z,97.20
2023-04-14T14:07:51.269Z,90.00
2023-04-14T14:10:18.343Z,89.50
2023-04-14T14:12:45.320Z,84.80
2023-04-14T14:15:12.242Z,79.10
2023-04-14T14:17:39.836Z,76.30
2023-04-14T14:20:08.201Z,73.60
2023-04-14T14:22:36.522Z,72.60
2023-04-14T14:25:17.738Z,69.20
2023-04-14T14:27:45.925Z,69.60
2023-04-14T14:30:13.353Z,69.30
2023-04-14T14:32:40.313Z,71.00
2023-04-14T14:35:07.582Z,68.10
2023-04-14T14:37:35.822Z,63.50
2023-04-14T14:40:02.756Z,64.30
2023-04-14T14:42:29.658Z,62.80
2023-04-14T14:44:57.360Z,60.60
2023-04-14T14:47:24.742Z,54.50
2023-04-14T14:49:59.812Z,50.40
2023-04-14T14:52:33.560Z,48.90
2023-04-14T14:55:02.063Z,47.40
2023-04-14T14:57:29.589Z,47.60
2023-04-14T14:59:56.674Z,45.80
2023-04-14T15:02:23.707Z,44.20
2023-04-14T15:04:50.616Z,42.90
2023-04-14T15:07:18.219Z,43.50
2023-04-14T15:09:46.330Z,44.30
2023-04-14T15:12:14.569Z,45.60
2023-04-14T15:14:41.458Z,47.10
2023-04-14T15:17:08.363Z,49.30
2023-04-14T15:19:35.178Z,51.00
2023-04-14T15:22:02.026Z,52.70
2023-04-14T15:24:28.932Z,55.30
2023-04-14T15:26:55.820Z,57.70
2023-04-14T15:29:24.112Z,60.30
2023-04-14T15:31:51.102Z,62.20
2023-04-14T15:34:18.038Z,64.00
2023-04-14T15:36:44.833Z,65.60
2023-04-14T15:39:11.705Z,66.30
2023-04-14T15:41:38.474Z,67.70
2023-04-14T15:44:05.315Z,69.40
2023-04-14T15:46:33.502Z,71.40
2023-04-14T15:49:00.392Z,71.60
2023-04-14T15:51:27.372Z,72.10
2023-04-14T15:53:54.160Z,72.20
2023-04-14T15:56:21.051Z,73.90
2023-04-14T15:58:47.858Z,76.50
2023-04-14T16:01:14.791Z,77.00
2023-04-14T16:03:43.141Z,75.90
2023-04-14T16:06:10.172Z,75.70
2023-04-14T16:08:36.991Z,76.30
2023-04-14T16:11:04.053Z,78.10
2023-04-14T16:13:33.272Z,79.40
2023-04-14T16:16:00.621Z,81.00
2023-04-14T16:18:30.436Z,81.60
2023-04-14T16:20:58.769Z,82.30
2023-04-14T16:23:27.462Z,84.00
2023-04-14T16:25:54.342Z,85.90
2023-04-14T16:28:21.272Z,87.00
2023-04-14T16:30:48.110Z,90.50
2023-04-14T16:33:14.959Z,92.10
2023-04-14T16:35:41.851Z,93.10
2023-04-14T16:38:10.218Z,93.90
2023-04-14T16:40:37.487Z,95.10
2023-04-14T16:43:04.783Z,97.00
2023-04-14T16:45:31.849Z,98.30
2023-04-14T16:47:58.835Z,98.90
2023-04-14T16:50:25.722Z,99.20
2023-04-14T16:52:52.791Z,98.90
2023-04-14T16:55:20.993Z,99.10
2023-04-14T16:57:47.854Z,99.90
2023-04-14T17:00:15.415Z,99.90
2023-04-14T17:02:42.522Z,99.90
2023-04-14T17:05:10.130Z,99.90
2023-04-14T17:07:37.116Z,99.90
2023-04-14T17:10:04.322Z,99.90
2023-04-14T17:12:33.073Z,99.90
2023-04-14T17:15:00.001Z,99.90
2023-04-14T17:17:26.979Z,99.90
2023-04-14T17:19:55.079Z,99.90
2023-04-14T17:22:22.680Z,99.90
2023-04-14T17:24:50.478Z,99.90
2023-04-14T17:27:17.437Z,99.90
2023-04-14T17:29:45.628Z,99.90
2023-04-14T17:32:12.648Z,99.90
2023-04-14T17:34:39.616Z,99.90
2023-04-14T17:37:06.455Z,99.90
2023-04-14T17:39:33.281Z,99.90
2023-04-14T17:42:00.182Z,99.90
2023-04-14T17:44:31.177Z,99.90
2023-04-14T17:46:59.347Z,99.90
2023-04-14T17:49:26.298Z,99.90
2023-04-14T17:51:53.261Z,99.90
2023-04-14T17:54:20.389Z,99.90
2023-04-14T17:56:47.878Z,99.90
2023-04-14T17:59:14.859Z,99.90
2023-04-14T18:01:41.821Z,99.90
2023-04-14T18:04:10.177Z,99.90
2023-04-14T18:06:37.116Z,99.90
2023-04-14T18:09:04.179Z,99.90
2023-04-14T18:11:31.120Z,99.90
2023-04-14T18:13:58.058Z,99.90
2023-04-14T18:16:25.113Z,99.90
2023-04-14T18:18:51.980Z,99.90
2023-04-14T18:21:20.391Z,99.90
2023-04-14T18:24:47.883Z,99.90
2023-04-14T18:26:34.103Z,99.90
2023-04-14T18:29:01.407Z,99.90
2023-04-14T18:31:28.568Z,99.90
2023-04-14T18:33:55.374Z,99.90
2023-04-14T18:36:23.554Z,99.90
2023-04-14T18:38:50.470Z,99.90
2023-04-14T18:41:17.326Z,99.90
2023-04-14T18:43:44.192Z,99.90
2023-04-14T18:46:11.142Z,99.90
2023-04-14T18:48:38.106Z,99.90
2023-04-14T18:51:05.024Z,99.90
2023-04-14T18:53:33.309Z,99.90
2023-04-14T18:56:00.176Z,99.90
2023-04-14T18:58:27.028Z,99.90
2023-04-14T19:00:53.832Z,99.90
2023-04-14T19:03:20.750Z,99.90
2023-04-14T19:05:49.246Z,99.90
2023-04-14T19:08:16.740Z,99.90
2023-04-14T19:10:47.166Z,99.90
2023-04-14T19:13:14.078Z,99.90
2023-04-14T19:15:40.987Z,99.90
2023-04-14T19:18:07.958Z,99.90
2023-04-14T19:20:34.928Z,99.90
2023-04-14T19:23:01.696Z,99.90
2023-04-14T19:25:28.554Z,99.90
2023-04-14T19:27:57.114Z,99.90
2023-04-14T19:30:23.849Z,99.90
2023-04-14T19:32:50.800Z,99.90
2023-04-14T19:35:17.796Z,99.90
2023-04-14T19:37:44.638Z,99.90
2023-04-14T19:40:12.128Z,99.90
2023-04-14T19:42:39.048Z,99.90
2023-04-14T19:45:08.775Z,99.90
2023-04-14T19:47:35.733Z,99.90
2023-04-14T19:50:02.730Z,99.90
2023-04-14T19:52:29.641Z,99.90
2023-04-14T19:54:56.474Z,99.90
2023-04-14T19:57:23.385Z,99.90
2023-04-14T19:59:50.212Z,99.90
2023-04-14T20:02:18.451Z,99.90
2023-04-14T20:04:46.689Z,99.90
2023-04-14T20:07:13.789Z,99.90
2023-04-14T20:09:40.637Z,99.90
2023-04-14T20:12:07.442Z,99.90
2023-04-14T20:14:34.274Z,99.90
2023-04-14T20:17:01.213Z,99.90
2023-04-14T20:19:29.410Z,99.90
2023-04-14T20:21:56.198Z,99.90
2023-04-14T20:24:23.092Z,99.90
2023-04-14T20:26:49.926Z,99.90
2023-04-14T20:29:16.868Z,99.90
2023-04-14T20:31:43.721Z,99.90
2023-04-14T20:34:10.546Z,99.90
2023-04-14T20:36:38.766Z,99.90
2023-04-14T20:39:06.125Z,99.90
2023-04-14T20:41:33.931Z,99.90
2023-04-14T20:44:00.909Z,99.90
2023-04-14T20:46:28.070Z,99.90
2023-04-14T20:48:55.240Z,99.90
2023-04-14T20:51:22.097Z,99.90
2023-04-14T20:53:50.313Z,99.90
2023-04-14T20:56:17.166Z,99.90
2023-04-14T20:58:44.082Z,99.90
2023-04-14T21:01:10.950Z,99.90
2023-04-14T21:03:37.971Z,99.90
2023-04-14T21:06:04.892Z,99.90
2023-04-14T21:08:31.762Z,99.90
2023-04-14T21:11:15.767Z,99.90
2023-04-14T21:15:26.716Z,99.90
2023-04-14T21:16:32.389Z,99.90
2023-04-14T21:18:59.302Z,99.90
2023-04-14T21:21:26.203Z,99.90
2023-04-14T21:23:53.069Z,99.90
2023-04-14T21:26:21.209Z,99.90
2023-04-14T21:28:48.058Z,99.90
2023-04-14T21:31:14.811Z,99.90
2023-04-14T21:33:41.715Z,99.90
2023-04-14T21:36:08.703Z,99.90
2023-04-14T21:38:35.542Z,99.90
2023-04-14T21:41:02.404Z,99.90
2023-04-14T21:43:30.994Z,99.90
2023-04-14T21:45:57.930Z,99.90
2023-04-14T21:48:24.901Z,99.90
2023-04-14T21:50:51.810Z,99.90
2023-04-14T21:53:18.736Z,99.90
2023-04-14T21:55:45.639Z,99.90
2023-04-14T21:58:12.523Z,99.90
2023-04-14T22:00:40.757Z,99.90
2023-04-14T22:03:07.884Z,99.90
2023-04-14T22:05:34.848Z,99.90
2023-04-14T22:08:01.640Z,99.90
2023-04-14T22:10:28.975Z,99.90
2023-04-14T22:12:55.812Z,99.90
2023-04-14T22:15:22.572Z,99.90
2023-04-14T22:17:50.741Z,99.90
2023-04-14T22:20:17.558Z,99.90
2023-04-14T22:22:51.839Z,99.90
2023-04-14T22:25:18.766Z,99.90
2023-04-14T22:27:45.602Z,99.90
2023-04-14T22:30:12.921Z,99.90
2023-04-14T22:32:39.839Z,99.90
2023-04-14T22:35:08.906Z,99.90
2023-04-14T22:37:35.731Z,99.90
2023-04-14T22:40:02.578Z,99.90
2023-04-14T22:42:29.391Z,99.90
2023-04-14T22:44:56.165Z,99.90
2023-04-14T22:47:23.094Z,99.90
2023-04-14T22:49:49.982Z,99.90
2023-04-14T22:52:18.075Z,99.90
2023-04-14T22:54:44.892Z,99.90
2023-04-14T22:57:11.678Z,99.90
2023-04-14T22:59:38.549Z,99.90
2023-04-14T23:02:05.478Z,99.90
2023-04-14T23:04:32.382Z,99.90
2023-04-14T23:06:59.166Z,99.90
2023-04-14T23:09:27.396Z,99.90
2023-04-14T23:11:54.181Z,99.90
2023-04-14T23:14:20.940Z,99.90
2023-04-14T23:16:47.789Z,99.90
2023-04-14T23:19:14.553Z,99.90
2023-04-14T23:21:41.300Z,99.90
2023-04-14T23:24:08.164Z,99.90
2023-04-14T23:26:36.338Z,99.90
2023-04-14T23:29:03.284Z,99.90
2023-04-14T23:31:30.353Z,99.90
2023-04-14T23:33:57.181Z,99.90
2023-04-14T23:36:24.018Z,99.90
2023-04-14T23:38:50.830Z,99.90
2023-04-14T23:41:18.499Z,99.90
2023-04-14T23:43:46.659Z,99.90
2023-04-14T23:46:13.450Z,99.90
2023-04-14T23:48:40.367Z,99.90
2023-04-14T23:51:16.488Z,99.90
2023-04-14T23:53:47.205Z,99.90
2023-04-14T23:56:14.026Z,99.90
2023-04-14T23:58:40.906Z,99.90
